createdAt,value
2023-03-19T00:01:22.324Z,7.17
2023-03-19T00:03:51.923Z,7.80
2023-03-19T00:06:19.106Z,7.47
2023-03-19T00:08:50.778Z,7.03
2023-03-19T00:11:19.954Z,8.27
2023-03-19T00:13:48.958Z,6.00
2023-03-19T00:16:16.241Z,9.07
2023-03-19T00:18:45.463Z,8.83
2023-03-19T00:21:12.352Z,7.00
2023-03-19T00:23:41.810Z,6.97
2023-03-19T00:26:11.892Z,7.77
2023-03-19T00:28:41.930Z,6.47
2023-03-19T00:31:19.025Z,6.47
2023-03-19T00:33:46.412Z,7.60
2023-03-19T00:36:19.232Z,5.80
2023-03-19T00:38:47.428Z,7.90
2023-03-19T00:41:18.251Z,7.53
2023-03-19T00:43:45.561Z,8.03
2023-03-19T00:46:16.764Z,8.07
2023-03-19T00:48:46.476Z,7.50
2023-03-19T00:51:15.487Z,8.57
2023-03-19T00:53:44.548Z,6.53
2023-03-19T00:56:18.196Z,9.67
2023-03-19T00:58:49.317Z,6.07
2023-03-19T01:01:20.891Z,6.20
2023-03-19T01:03:53.130Z,7.47
2023-03-19T01:06:22.533Z,6.17
2023-03-19T01:08:49.417Z,5.83
2023-03-19T01:11:19.279Z,6.53
2023-03-19T01:13:48.389Z,6.63
2023-03-19T01:16:19.322Z,6.33
2023-03-19T01:18:46.442Z,6.77
2023-03-19T01:21:13.660Z,6.33
2023-03-19T01:23:54.153Z,6.53
2023-03-19T01:26:25.206Z,8.83
2023-03-19T01:28:58.611Z,7.60
2023-03-19T01:31:28.423Z,6.73
2023-03-19T01:34:24.158Z,9.13
2023-03-19T01:36:57.701Z,8.27
2023-03-19T01:39:34.349Z,8.43
2023-03-19T01:42:05.328Z,6.33
2023-03-19T01:44:51.569Z,8.60
2023-03-19T01:47:42.439Z,9.13
2023-03-19T01:50:39.279Z,7.07
2023-03-19T01:53:32.876Z,9.17
2023-03-19T01:56:32.669Z,7.17
2023-03-19T01:59:31.534Z,8.43
2023-03-19T02:02:44.723Z,7.80
2023-03-19T02:05:32.950Z,6.97
2023-03-19T02:08:09.019Z,7.07
2023-03-19T02:10:41.304Z,7.20
2023-03-19T02:13:13.118Z,6.83
2023-03-19T02:15:43.358Z,9.07
2023-03-19T02:18:10.577Z,7.10
2023-03-19T02:21:00.733Z,6.57
2023-03-19T02:23:55.200Z,8.33
2023-03-19T02:26:44.366Z,6.27
2023-03-19T02:29:11.351Z,7.33
2023-03-19T02:31:41.345Z,6.90
2023-03-19T02:34:21.893Z,6.40
2023-03-19T02:37:08.939Z,7.53
2023-03-19T02:39:53.206Z,9.83
2023-03-19T02:42:27.588Z,8.33
2023-03-19T02:44:57.321Z,7.20
2023-03-19T02:47:29.039Z,8.20
2023-03-19T02:49:55.886Z,6.77
2023-03-19T02:52:25.913Z,11.87
2023-03-19T02:54:52.848Z,7.53
2023-03-19T02:57:21.752Z,6.00
2023-03-19T02:59:53.533Z,6.33
2023-03-19T03:02:22.978Z,6.60
2023-03-19T03:04:52.214Z,8.07
2023-03-19T03:07:22.233Z,6.77
2023-03-19T03:09:51.389Z,8.23
2023-03-19T03:12:23.021Z,8.50
2023-03-19T03:14:52.065Z,7.27
2023-03-19T03:17:21.316Z,7.17
2023-03-19T03:19:51.541Z,8.83
2023-03-19T03:22:21.394Z,6.70
2023-03-19T03:24:52.506Z,8.53
2023-03-19T03:27:21.903Z,7.77
2023-03-19T03:29:51.314Z,6.70
2023-03-19T03:32:22.952Z,7.87
2023-03-19T03:34:50.412Z,8.13
2023-03-19T03:37:19.703Z,8.50
2023-03-19T03:39:48.783Z,6.90
2023-03-19T03:42:18.434Z,5.77
2023-03-19T03:44:45.447Z,6.20
2023-03-19T03:47:13.169Z,8.17
2023-03-19T03:49:40.062Z,7.20
2023-03-19T03:52:09.436Z,6.73
2023-03-19T03:54:36.482Z,7.07
2023-03-19T03:57:05.397Z,9.27
2023-03-19T03:59:32.355Z,6.63
2023-03-19T04:02:01.853Z,6.03
2023-03-19T04:04:34.297Z,6.97
2023-03-19T04:07:03.547Z,8.17
2023-03-19T04:09:38.034Z,7.43
2023-03-19T04:12:07.900Z,6.10
2023-03-19T04:14:37.323Z,6.50
2023-03-19T04:17:05.077Z,7.90
2023-03-19T04:19:32.664Z,8.67
2023-03-19T04:22:03.998Z,6.20
2023-03-19T04:24:33.118Z,6.47
2023-03-19T04:27:03.178Z,8.07
2023-03-19T04:29:30.465Z,5.80
2023-03-19T04:32:02.871Z,7.40
2023-03-19T04:34:29.871Z,5.73
2023-03-19T04:36:58.932Z,6.17
2023-03-19T04:39:26.383Z,5.63
2023-03-19T04:41:58.549Z,5.40
2023-03-19T04:44:31.042Z,6.63
2023-03-19T04:47:01.137Z,6.33
2023-03-19T04:49:33.626Z,8.37
2023-03-19T04:52:06.113Z,6.00
2023-03-19T04:54:33.973Z,6.57
2023-03-19T04:57:01.060Z,5.47
2023-03-19T04:59:33.142Z,9.80
2023-03-19T05:02:00.522Z,5.60
2023-03-19T05:04:29.970Z,5.43
2023-03-19T05:07:04.399Z,6.03
2023-03-19T05:09:31.797Z,6.60
2023-03-19T05:12:03.249Z,5.10
2023-03-19T05:14:38.214Z,7.93
2023-03-19T05:17:19.136Z,5.40
2023-03-19T05:19:57.354Z,5.57
2023-03-19T05:22:29.739Z,6.90
2023-03-19T05:24:57.696Z,5.80
2023-03-19T05:27:25.567Z,6.20
2023-03-19T05:30:05.451Z,5.43
2023-03-19T05:32:50.234Z,6.53
2023-03-19T05:35:40.500Z,5.63
2023-03-19T05:38:28.810Z,6.23
2023-03-19T05:41:08.680Z,5.20
2023-03-19T05:43:43.626Z,5.60
2023-03-19T05:46:22.291Z,7.57
2023-03-19T05:48:53.988Z,5.83
2023-03-19T05:51:23.419Z,5.40
2023-03-19T05:53:52.639Z,6.53
2023-03-19T05:56:45.315Z,5.90
2023-03-19T05:59:30.289Z,4.97
2023-03-19T06:02:23.553Z,6.93
2023-03-19T06:05:08.416Z,5.27
2023-03-19T06:07:36.277Z,7.00
2023-03-19T06:10:11.546Z,5.47
2023-03-19T06:12:38.629Z,7.03
2023-03-19T06:15:34.631Z,7.00
2023-03-19T06:18:24.250Z,6.10
2023-03-19T06:20:54.405Z,7.40
2023-03-19T06:23:23.673Z,6.27
2023-03-19T06:25:52.736Z,5.03
2023-03-19T06:28:22.220Z,6.07
2023-03-19T06:30:51.471Z,5.80
2023-03-19T06:33:37.010Z,5.90
2023-03-19T06:36:05.065Z,5.00
2023-03-19T06:38:36.765Z,6.53
2023-03-19T06:41:06.658Z,5.47
2023-03-19T06:43:37.198Z,6.93
2023-03-19T06:46:05.255Z,6.73
2023-03-19T06:48:33.090Z,6.00
2023-03-19T06:51:02.434Z,5.23
2023-03-19T06:53:29.252Z,7.10
2023-03-19T06:55:58.762Z,4.97
2023-03-19T06:58:28.169Z,4.77
2023-03-19T07:00:59.570Z,5.80
2023-03-19T07:03:28.739Z,7.73
2023-03-19T07:06:00.231Z,5.87
2023-03-19T07:08:29.969Z,6.40
2023-03-19T07:10:58.276Z,5.03
2023-03-19T07:13:30.125Z,4.90
2023-03-19T07:15:59.567Z,5.23
2023-03-19T07:18:29.450Z,5.97
2023-03-19T07:20:56.441Z,8.47
2023-03-19T07:23:28.353Z,7.03
2023-03-19T07:26:01.136Z,9.77
2023-03-19T07:28:28.011Z,5.23
2023-03-19T07:30:57.132Z,7.27
2023-03-19T07:33:31.106Z,5.43
2023-03-19T07:36:00.602Z,5.87
2023-03-19T07:38:29.725Z,4.70
2023-03-19T07:41:02.771Z,5.27
2023-03-19T07:43:34.863Z,5.53
2023-03-19T07:46:04.782Z,5.17
2023-03-19T07:48:38.679Z,5.80
2023-03-19T07:51:06.583Z,4.77
2023-03-19T07:53:36.185Z,4.63
2023-03-19T07:56:08.204Z,4.90
2023-03-19T07:58:37.656Z,4.80
2023-03-19T08:01:08.172Z,8.17
2023-03-19T08:03:36.028Z,4.50
2023-03-19T08:06:03.934Z,4.60
2023-03-19T08:08:35.658Z,6.80
2023-03-19T08:11:05.336Z,4.83
2023-03-19T08:13:36.844Z,4.77
2023-03-19T08:16:04.033Z,5.83
2023-03-19T08:18:35.805Z,4.10
2023-03-19T08:21:05.685Z,3.60
2023-03-19T08:23:35.575Z,4.73
2023-03-19T08:26:02.471Z,3.93
2023-03-19T08:28:33.867Z,4.77
2023-03-19T08:31:13.686Z,4.63
2023-03-19T08:33:45.172Z,4.50
2023-03-19T08:36:14.999Z,5.40
2023-03-19T08:38:47.578Z,4.97
2023-03-19T08:41:14.480Z,5.17
2023-03-19T08:43:46.116Z,4.87
2023-03-19T08:46:16.670Z,4.57
2023-03-19T08:48:46.541Z,4.43
2023-03-19T08:51:18.353Z,5.03
2023-03-19T08:53:45.390Z,4.27
2023-03-19T08:56:12.231Z,4.27
2023-03-19T08:58:46.592Z,4.60
2023-03-19T09:01:18.329Z,5.77
2023-03-19T09:03:47.893Z,4.20
2023-03-19T09:06:14.758Z,5.40
2023-03-19T09:08:42.170Z,4.27
2023-03-19T09:11:12.104Z,4.87
2023-03-19T09:13:41.769Z,5.10
2023-03-19T09:16:11.134Z,12.23
2023-03-19T09:18:40.308Z,7.87
2023-03-19T09:21:10.134Z,6.50
2023-03-19T09:23:39.318Z,6.03
2023-03-19T09:26:11.125Z,4.20
2023-03-19T09:28:41.033Z,5.03
2023-03-19T09:31:11.495Z,4.00
2023-03-19T09:33:38.603Z,4.17
2023-03-19T09:36:08.115Z,3.73
2023-03-19T09:38:37.252Z,3.90
2023-03-19T09:41:38.581Z,3.30
2023-03-19T09:44:27.914Z,3.07
2023-03-19T09:47:46.056Z,3.10
2023-03-19T09:50:21.186Z,3.37
2023-03-19T09:53:22.480Z,3.13
2023-03-19T09:55:54.017Z,3.13
2023-03-19T09:58:30.753Z,3.23
2023-03-19T10:01:02.790Z,4.03
2023-03-19T10:04:08.700Z,4.00
2023-03-19T10:06:40.966Z,4.20
2023-03-19T10:09:31.871Z,3.03
2023-03-19T10:12:35.670Z,3.07
2023-03-19T10:15:34.699Z,2.90
2023-03-19T10:18:12.262Z,2.73
2023-03-19T10:21:05.229Z,2.97
2023-03-19T10:24:00.489Z,2.83
2023-03-19T10:26:35.879Z,2.67
2023-03-19T10:29:19.762Z,2.83
2023-03-19T10:32:24.619Z,4.57
2023-03-19T10:34:57.872Z,3.10
2023-03-19T10:37:34.249Z,2.70
2023-03-19T10:40:01.778Z,2.67
2023-03-19T10:43:00.387Z,2.50
2023-03-19T10:45:33.286Z,3.10
2023-03-19T10:48:05.586Z,4.30
2023-03-19T10:50:53.796Z,3.03
2023-03-19T10:53:29.430Z,3.17
2023-03-19T10:56:31.136Z,2.57
2023-03-19T10:59:05.887Z,3.53
2023-03-19T11:01:43.034Z,2.93
2023-03-19T11:04:22.276Z,2.83
2023-03-19T11:06:56.373Z,4.43
2023-03-19T11:09:51.513Z,2.67
2023-03-19T11:12:33.975Z,3.27
2023-03-19T11:15:03.982Z,3.23
2023-03-19T11:17:47.400Z,2.70
2023-03-19T11:20:38.822Z,3.53
2023-03-19T11:23:17.250Z,3.47
2023-03-19T11:26:01.752Z,2.80
2023-03-19T11:28:36.690Z,3.03
2023-03-19T11:31:17.527Z,2.30
2023-03-19T11:34:20.274Z,3.00
2023-03-19T11:37:11.676Z,2.80
2023-03-19T11:40:06.373Z,2.90
2023-03-19T11:43:00.506Z,3.13
2023-03-19T11:45:36.976Z,2.53
2023-03-19T11:48:28.975Z,2.97
2023-03-19T11:51:27.183Z,2.37
2023-03-19T11:54:04.563Z,2.73
2023-03-19T11:56:52.358Z,2.23
2023-03-19T11:59:39.972Z,2.20
2023-03-19T12:02:32.371Z,2.87
2023-03-19T12:05:21.480Z,2.63
2023-03-19T12:08:09.649Z,2.57
2023-03-19T12:10:46.096Z,2.93
2023-03-19T12:13:37.673Z,5.07
2023-03-19T12:17:07.425Z,4.70
2023-03-19T12:19:51.106Z,3.03
2023-03-19T12:22:48.724Z,2.70
2023-03-19T12:26:00.184Z,3.10
2023-03-19T12:28:49.224Z,2.80
2023-03-19T12:31:44.030Z,2.27
2023-03-19T12:34:31.154Z,4.03
2023-03-19T12:37:22.617Z,2.63
2023-03-19T12:40:39.423Z,2.77
2023-03-19T12:43:51.275Z,2.43
2023-03-19T12:46:24.153Z,3.03
2023-03-19T12:49:12.001Z,2.63
2023-03-19T12:51:50.574Z,2.50
2023-03-19T12:55:04.354Z,2.60
2023-03-19T12:57:49.859Z,3.53
2023-03-19T13:00:35.498Z,3.07
2023-03-19T13:03:20.554Z,2.47
2023-03-19T13:06:20.600Z,4.87
2023-03-19T13:09:01.507Z,2.67
2023-03-19T13:11:46.400Z,2.43
2023-03-19T13:14:27.324Z,2.40
2023-03-19T13:17:30.377Z,3.47
2023-03-19T13:20:15.665Z,2.30
2023-03-19T13:22:54.619Z,2.73
2023-03-19T13:25:37.221Z,2.73
2023-03-19T13:28:10.953Z,1.60
2023-03-19T13:30:40.195Z,1.60
2023-03-19T13:33:22.826Z,2.00
2023-03-19T13:35:51.753Z,2.40
2023-03-19T13:38:43.648Z,2.10
2023-03-19T13:41:34.711Z,1.73
2023-03-19T13:44:21.420Z,1.77
2023-03-19T13:46:53.966Z,1.87
2023-03-19T13:49:36.136Z,1.53
2023-03-19T13:52:26.211Z,2.80
2023-03-19T13:54:58.097Z,1.50
2023-03-19T13:57:36.132Z,1.87
2023-03-19T14:00:45.263Z,2.40
2023-03-19T14:03:24.153Z,1.67
2023-03-19T14:05:57.499Z,1.50
2023-03-19T14:08:42.973Z,1.63
2023-03-19T14:11:10.986Z,1.50
2023-03-19T14:13:48.983Z,2.10
2023-03-19T14:16:32.137Z,1.23
2023-03-19T14:19:14.938Z,1.20
2023-03-19T14:22:00.219Z,1.30
2023-03-19T14:27:46.040Z,1.00
2023-03-19T14:30:39.018Z,1.27
2023-03-19T14:33:18.060Z,1.50
2023-03-19T14:35:52.264Z,1.03
2023-03-19T14:38:49.319Z,0.90
2023-03-19T14:41:21.997Z,0.90
2023-03-19T14:44:22.846Z,1.07
2023-03-19T14:47:01.854Z,1.20
2023-03-19T14:49:47.972Z,1.13
2023-03-19T14:52:43.328Z,1.70
2023-03-19T14:55:15.926Z,1.40
2023-03-19T14:57:45.469Z,1.53
2023-03-19T15:00:21.520Z,1.37
2023-03-19T15:02:52.684Z,1.43
2023-03-19T15:05:29.637Z,1.50
2023-03-19T15:08:13.203Z,1.30
2023-03-19T15:11:14.289Z,1.40
2023-03-19T15:13:53.059Z,1.37
2023-03-19T15:16:39.407Z,1.43
2023-03-19T15:19:13.864Z,1.40
2023-03-19T15:21:43.259Z,2.03
2023-03-19T15:24:19.196Z,2.13
2023-03-19T15:26:46.703Z,1.20
2023-03-19T15:29:13.774Z,1.53
2023-03-19T15:31:52.805Z,1.50
2023-03-19T15:34:37.100Z,1.43
2023-03-19T15:37:15.320Z,1.50
2023-03-19T15:39:54.157Z,1.37
2023-03-19T15:42:25.978Z,2.70
2023-03-19T15:45:03.578Z,1.77
2023-03-19T15:47:36.583Z,1.57
2023-03-19T15:50:23.158Z,1.60
2023-03-19T15:53:09.434Z,1.70
2023-03-19T15:55:37.330Z,1.67
2023-03-19T15:58:18.501Z,1.67
2023-03-19T16:00:45.461Z,1.07
2023-03-19T16:03:29.811Z,1.30
2023-03-19T16:06:21.241Z,1.47
2023-03-19T16:08:53.805Z,1.53
2023-03-19T16:11:30.503Z,1.27
2023-03-19T16:14:17.206Z,1.20
2023-03-19T16:16:50.724Z,1.17
2023-03-19T16:19:51.928Z,1.37
2023-03-19T16:22:28.892Z,1.57
2023-03-19T16:24:59.090Z,0.80
2023-03-19T16:27:39.607Z,0.80
2023-03-19T16:30:27.648Z,1.00
2023-03-19T16:33:01.006Z,0.70
2023-03-19T16:35:30.272Z,1.37
2023-03-19T16:38:28.206Z,0.70
2023-03-19T16:41:24.206Z,1.00
2023-03-19T16:43:55.250Z,0.70
2023-03-19T16:46:24.254Z,0.90
2023-03-19T16:48:51.318Z,0.90
2023-03-19T16:51:21.782Z,0.90
2023-03-19T16:53:51.080Z,1.17
2023-03-19T16:56:18.710Z,0.87
2023-03-19T16:58:46.380Z,1.07
2023-03-19T17:01:25.513Z,1.53
2023-03-19T17:03:57.625Z,1.07
2023-03-19T17:06:29.405Z,2.47
2023-03-19T17:08:56.492Z,1.57
2023-03-19T17:11:33.831Z,1.30
2023-03-19T17:14:02.193Z,1.17
2023-03-19T17:16:32.740Z,1.50
2023-03-19T17:18:59.990Z,1.00
2023-03-19T17:21:35.390Z,1.33
2023-03-19T17:24:28.603Z,1.30
2023-03-19T17:27:02.908Z,1.30
2023-03-19T17:29:31.162Z,1.10
2023-03-19T17:32:01.756Z,1.97
2023-03-19T17:34:38.512Z,3.30
2023-03-19T17:37:15.691Z,2.87
2023-03-19T17:39:45.789Z,2.10
2023-03-19T17:42:24.804Z,1.53
2023-03-19T17:44:52.090Z,2.00
2023-03-19T17:47:19.643Z,2.63
2023-03-19T17:49:47.023Z,2.83
2023-03-19T17:52:18.957Z,1.70
2023-03-19T17:54:48.108Z,1.87
2023-03-19T17:57:16.112Z,1.90
2023-03-19T17:59:43.077Z,1.80
2023-03-19T18:02:31.103Z,2.37
2023-03-19T18:04:58.743Z,1.70
2023-03-19T18:07:25.639Z,1.83
2023-03-19T18:09:54.764Z,1.90
2023-03-19T18:12:28.909Z,1.87
2023-03-19T18:14:58.037Z,2.00
2023-03-19T18:17:27.264Z,4.87
2023-03-19T18:19:54.411Z,1.53
2023-03-19T18:22:23.313Z,1.60
2023-03-19T18:24:57.283Z,2.43
2023-03-19T18:27:24.815Z,1.70
2023-03-19T18:29:53.854Z,1.80
2023-03-19T18:32:30.164Z,2.33
2023-03-19T18:34:59.686Z,2.43
2023-03-19T18:37:27.381Z,2.17
2023-03-19T18:39:56.971Z,2.83
2023-03-19T18:42:26.250Z,3.40
2023-03-19T18:44:55.441Z,3.03
2023-03-19T18:47:27.405Z,5.93
2023-03-19T18:49:57.604Z,3.87
2023-03-19T18:52:24.463Z,8.43
2023-03-19T18:54:53.593Z,5.50
2023-03-19T18:57:25.323Z,3.90
2023-03-19T18:59:55.024Z,5.23
2023-03-19T19:02:37.351Z,3.20
2023-03-19T19:05:12.888Z,3.07
2023-03-19T19:07:39.801Z,4.80
2023-03-19T19:10:10.939Z,8.30
2023-03-19T19:12:47.782Z,7.27
2023-03-19T19:15:25.236Z,4.57
2023-03-19T19:17:53.179Z,3.67
2023-03-19T19:20:24.610Z,3.33
2023-03-19T19:22:55.473Z,3.23
2023-03-19T19:25:31.511Z,3.27
2023-03-19T19:28:13.182Z,3.40
2023-03-19T19:30:43.930Z,4.00
2023-03-19T19:33:20.335Z,3.30
2023-03-19T19:35:47.518Z,3.30
2023-03-19T19:38:14.870Z,5.50
2023-03-19T19:40:47.264Z,5.20
2023-03-19T19:43:20.905Z,4.57
2023-03-19T19:45:51.610Z,4.93
2023-03-19T19:48:31.860Z,5.00
2023-03-19T19:51:03.380Z,3.83
2023-03-19T19:53:32.600Z,4.43
2023-03-19T19:56:03.087Z,3.57
2023-03-19T19:58:34.577Z,4.53
2023-03-19T20:01:04.158Z,7.37
2023-03-19T20:03:34.628Z,5.83
2023-03-19T20:06:04.343Z,6.33
2023-03-19T20:08:31.283Z,5.80
2023-03-19T20:10:58.344Z,4.97
2023-03-19T20:13:29.929Z,4.83
2023-03-19T20:16:01.970Z,7.37
2023-03-19T20:18:35.371Z,6.87
2023-03-19T20:21:06.988Z,4.73
2023-03-19T20:23:36.363Z,5.00
2023-03-19T20:26:06.029Z,4.27
2023-03-19T20:28:35.586Z,3.70
2023-03-19T20:31:04.554Z,3.60
2023-03-19T20:33:32.307Z,5.20
2023-03-19T20:35:59.283Z,7.13
2023-03-19T20:38:31.276Z,8.80
2023-03-19T20:41:00.993Z,8.10
2023-03-19T20:43:30.662Z,7.40
2023-03-19T20:46:04.204Z,5.07
2023-03-19T20:48:34.262Z,4.87
2023-03-19T20:51:04.551Z,4.50
2023-03-19T20:53:31.500Z,5.00
2023-03-19T20:56:03.304Z,5.07
2023-03-19T20:58:36.990Z,4.23
2023-03-19T21:01:04.295Z,4.80
2023-03-19T21:03:32.651Z,4.10
2023-03-19T21:06:06.667Z,4.77
2023-03-19T21:08:42.763Z,4.23
2023-03-19T21:11:19.921Z,4.20
2023-03-19T21:13:53.030Z,3.63
2023-03-19T21:16:25.899Z,3.90
2023-03-19T21:18:57.519Z,3.50
2023-03-19T21:21:38.788Z,3.77
2023-03-19T21:24:21.641Z,5.60
2023-03-19T21:26:51.186Z,4.77
2023-03-19T21:29:29.419Z,4.37
2023-03-19T21:31:56.872Z,3.47
2023-03-19T21:34:23.790Z,3.63
2023-03-19T21:36:57.526Z,4.20
2023-03-19T21:39:29.286Z,3.30
2023-03-19T21:42:11.409Z,4.53
2023-03-19T21:44:49.417Z,3.07
2023-03-19T21:47:23.554Z,3.27
2023-03-19T21:49:50.401Z,3.53
2023-03-19T21:52:21.839Z,4.57
2023-03-19T21:54:50.949Z,6.03
2023-03-19T21:57:18.556Z,13.80
2023-03-19T21:59:50.654Z,6.27
2023-03-19T22:02:23.803Z,5.40
2023-03-19T22:04:55.433Z,4.23
2023-03-19T22:07:24.865Z,4.67
2023-03-19T22:09:54.143Z,3.50
2023-03-19T22:12:32.439Z,3.60
2023-03-19T22:15:01.497Z,3.20
2023-03-19T22:17:30.953Z,3.83
2023-03-19T22:19:58.183Z,3.73
2023-03-19T22:22:29.677Z,3.23
2023-03-19T22:24:59.151Z,3.17
2023-03-19T22:27:30.268Z,3.43
2023-03-19T22:30:01.441Z,3.33
2023-03-19T22:32:33.020Z,3.60
2023-03-19T22:35:07.123Z,3.57
2023-03-19T22:37:40.839Z,3.00
2023-03-19T22:40:11.382Z,3.60
2023-03-19T22:42:42.341Z,4.40
2023-03-19T22:45:32.059Z,4.33
2023-03-19T22:48:02.300Z,3.60
2023-03-19T22:50:31.823Z,3.70
2023-03-19T22:53:02.047Z,3.60
2023-03-19T22:55:31.939Z,3.57
2023-03-19T22:57:58.724Z,3.30
2023-03-19T23:00:26.323Z,3.40
2023-03-19T23:02:57.738Z,3.63
2023-03-19T23:05:33.395Z,5.10
2023-03-19T23:08:03.695Z,3.53
2023-03-19T23:10:37.070Z,3.77
2023-03-19T23:13:04.012Z,4.27
2023-03-19T23:15:31.358Z,3.90
2023-03-19T23:18:01.154Z,3.87
2023-03-19T23:20:34.900Z,3.37
2023-03-19T23:23:07.542Z,3.10
2023-03-19T23:25:37.790Z,4.90
2023-03-19T23:28:07.848Z,3.73
2023-03-19T23:30:34.717Z,3.10
2023-03-19T23:33:03.262Z,3.47
2023-03-19T23:35:35.195Z,3.33
2023-03-19T23:38:08.418Z,3.40
2023-03-19T23:40:44.001Z,2.87
2023-03-19T23:43:23.708Z,3.20
2023-03-19T23:46:01.013Z,2.80
2023-03-19T23:48:39.208Z,3.30
2023-03-19T23:51:15.736Z,3.53
2023-03-19T23:53:46.279Z,3.53
2023-03-19T23:56:26.294Z,3.13
